Funk Island Bank - southeastern half: Past 24 Hour Conditions

 

Ferolle Point

01:30 AM NDT 25 April 2014
This table is a summary of hourly weather conditions for the past 24 hours.
Date / Time
(NDT)
Wind(knots) Conditions Visibility(km) Pressure(kPa) Air tempC) Relative humidity(%) Dew pointC) Wind Chill
25 April 2014
1:30 NE 19 N/A N/A 101.1 -1 99 -1 -8
0:30 NE 20 gust 25 N/A N/A 101.2 -1 97 -1 -8
24 April 2014
23:30 NE 19 gust 24 N/A N/A 101.2 -1 97 -1 -8
22:30 NE 19 gust 24 N/A N/A 101.3 -1 95 -2 -9
21:30 NE 18 gust 23 N/A N/A 101.4 -1 90 -2 -8
20:30 NE 18 N/A N/A 101.4 -1 88 -3 -8
19:30 NE 21 N/A N/A 101.3 -1 87 -3 -8
18:30 NE 23 gust 28 N/A N/A 101.3 -1 86 -3 -8
17:30 NE 20 gust 25 N/A N/A 101.3 -1 87 -3 -8
16:30 NE 18 gust 24 N/A N/A 101.3 0 84 -3 -7
15:30 NE 18 N/A N/A 101.3 0 84 -2 -7
14:30 NE 19 N/A N/A 101.4 0 85 -3 -7
13:30 NE 19 gust 24 N/A N/A 101.4 0 82 -3 -7
12:30 ENE 20 gust 26 N/A N/A 101.4 1 75 -3 *
11:30 ENE 20 gust 26 N/A N/A 101.4 0 78 -3 *
10:30 ENE 21 gust 27 N/A N/A 101.4 0 77 -4 -7
9:30 ENE 20 gust 27 N/A N/A 101.4 0 77 -4 -8
8:30 ENE 18 gust 25 N/A N/A 101.3 -1 81 -4 -8
7:30 ENE 16 gust 21 N/A N/A 101.4 -1 83 -4 -8
6:30 ENE 14 gust 20 N/A N/A 101.3 -2 84 -4 -8
5:30 ENE 14 gust 20 N/A N/A 101.3 -2 88 -4 -8
4:30 ENE 14 N/A N/A 101.3 -2 88 -4 -9
3:30 ENE 17 N/A N/A 101.3 -1 85 -4 -8
2:30 ENE 14 gust 21 N/A N/A 101.3 -1 81 -4 -8
1:30 ENE 17 N/A N/A 101.3 -1 84 -4 -8
 
Map of Atlantic - Newfoundland marine weather areas Southwestern Grand Banks - 44138 Banquereau - 44139 Tail of the Bank - 44140 Nickerson Bank - 44251 Northeast Burgeo Bank - 44255 Blanc-Sablon Airport Cap Whittle Chevery Natashquan Airport Heath Point Miscou Island Grand Étang Ingonish Beach North Mountain St.Paul Island J.A. Douglas McCurdy Sydney Airport Charlottetown Airport East Point North Cape Argentia Bonavista Burgeo Cape Race Corner Brook Daniel's Harbour Englee Ferolle Point La Scie Port aux Basques Rocky Harbour Sagona Island St. Anthony Airport St. John's Int'l Airport St. Lawrence Stephenville Airport Twillingate Winterland Wreckhouse Cartwright Airport Mary's Harbour Grates Cove Pool's Island Marticot Island Long Pond Îles de la Madeleine Airport
Legend: buoyBuoy land stationLand Station